Aviation Digital Data Service (ADDS)

Output produced by METARs form (1242 UTC 22 March 2019)
found at http://www.aviationweather.gov/metar/data/
 
Forecast for: OPKC (KARACHI INTL ARP, PK)
Text: TAF OPKC 221230Z 2215/2224 28010KT 6000 FEW030 SCT090
Forecast period: 1500 UTC 22 March 2019 to 0000 UTC 23 March 2019
Forecast type: FROM: standard forecast or significant change
Winds: from the W (280 degrees) at 12 MPH (10 knots; 5.1 m/s)
Visibility: 4 miles (6 km)
Ceiling: at least 12,000 feet AGL
Clouds: few clouds at 3000 feet AGL
scattered clouds at 9000 feet AGL
Weather: no significant weather forecast for this period
Text: TEMPO 2215/2218 26010G20KT 7000 SCT090
Forecast period: 1500 to 1800 UTC 22 March 2019
Forecast type: TEMPORARY: The following changes expected for less than half the time period
Winds: from the W (260 degrees) at 12 MPH (10 knots; 5.1 m/s)
gusting to 23 MPH (20 knots; 10.3 m/s)
Visibility: 4 miles (7 km)
Ceiling: at least 12,000 feet AGL
Clouds: scattered clouds at 9000 feet AGL
Weather: no significant weather forecast for this period